Fadiq — TCA4835 — position and weather

sailwx.info

Track history (hours):
 
Tides and Currents Weather Stations Pressure Air Temp Water Temp Dewpoint Dewpoint Depression Visibility Wind Speed Wind Dir Waves Ship Positions

Fadiq

Last reported at 2018-Jun-19 18:53 UTC. Time now 2018-Jun-20 09:44 UTC.
Position N 40°46' E 028°54'.

Length 210 m; draft 6.9 m.

Type: Ship (hazmat cat A). MMSI: 271045707.

Date/timePositionNaut miles runAvg speedWind from/ knotsBaromVisibWave heightAir tempDewpointWater temp
2018-Jun-19 18:53N 40°46' E 028°54'1119.4
2018-Jun-19 18:20N 40°44' E 028°40'  
2018-Jun-17 12:58N 44°07' E 014°02'2420.0
2018-Jun-17 11:45N 44°27' E 013°43'519.8
2018-Jun-17 11:30N 44°31' E 013°39'1019.8
2018-Jun-17 11:00N 44°39' E 013°32'1020.0
2018-Jun-17 10:30N 44°48' E 013°24'1019.9
2018-Jun-17 10:00N 44°56' E 013°16'1019.9
2018-Jun-17 09:30N 45°04' E 013°08'1019.6
2018-Jun-17 09:00N 45°13' E 013°03'918.6
2018-Jun-17 08:30N 45°23' E 013°02'1019.6
2018-Jun-17 08:00N 45°30' E 013°12'1019.1
2018-Jun-17 07:30N 45°35' E 013°23'1019.2
2018-Jun-17 07:00N 45°38' E 013°36'612.7
2018-Jun-17 06:30N 45°38' E 013°45'0 0.1
2018-Jun-17 05:49N 45°38' E 013°45'0 0.0
2018-Jun-17 05:25N 45°38' E 013°45'0 0.0
2018-Jun-17 04:55N 45°38' E 013°45'0 0.0
2018-Jun-17 04:25N 45°38' E 013°45'0 0.0
2018-Jun-17 03:55N 45°38' E 013°45'0 0.0
2018-Jun-17 03:13N 45°38' E 013°45'0 0.0
2018-Jun-17 02:55N 45°38' E 013°45'0 0.0
2018-Jun-17 02:19N 45°38' E 013°45'0 0.0
2018-Jun-17 01:55N 45°38' E 013°45'0 0.0
2018-Jun-17 01:25N 45°38' E 013°45'0 0.0
2018-Jun-17 00:55N 45°38' E 013°45'0 0.0
2018-Jun-17 00:25N 45°38' E 013°45'0 0.0
2018-Jun-16 23:55N 45°38' E 013°45'0 0.0
2018-Jun-16 23:25N 45°38' E 013°45'0 0.0
2018-Jun-16 22:55N 45°38' E 013°45'0 0.0
2018-Jun-16 22:25N 45°38' E 013°45'0 0.0
2018-Jun-16 21:55N 45°38' E 013°45'0 0.0
2018-Jun-16 21:25N 45°38' E 013°45'0 0.0
2018-Jun-16 20:55N 45°38' E 013°45'0 0.0
2018-Jun-16 20:25N 45°38' E 013°45'0 0.0
2018-Jun-16 19:55N 45°38' E 013°45'0 0.0
2018-Jun-16 19:19N 45°38' E 013°45'0 0.0
2018-Jun-16 18:49N 45°38' E 013°45'0 0.0
2018-Jun-16 18:25N 45°38' E 013°45'0 0.0
2018-Jun-16 17:49N 45°38' E 013°45'0 0.0
2018-Jun-16 17:25N 45°38' E 013°45'0 0.0
2018-Jun-16 16:55N 45°38' E 013°45'0 0.0
2018-Jun-16 16:25N 45°38' E 013°45'0 0.0
2018-Jun-16 15:49N 45°38' E 013°45'0 0.0
2018-Jun-16 15:25N 45°38' E 013°45'0 0.0
2018-Jun-16 14:55N 45°38' E 013°45'2 3.7
2018-Jun-16 14:30N 45°39' E 013°43'714.8
2018-Jun-16 14:01N 45°36' E 013°34'918.8
2018-Jun-16 13:30N 45°31' E 013°22'1019.3
2018-Jun-16 13:00N 45°24' E 013°13'918.5
2018-Jun-16 12:30N 45°15' E 013°13'1019.7
2018-Jun-16 12:00N 45°06' E 013°17'1020.1
2018-Jun-16 11:30N 44°57' E 013°23'1019.9
2018-Jun-16 11:00N 44°48' E 013°30'1020.0
2018-Jun-16 10:30N 44°40' E 013°38'1419.9
2018-Jun-16 09:49N 44°28' E 013°48'620.0
2018-Jun-16 09:30N 44°23' E 013°53'63519.3
2018-Jun-15 00:36N 36°26' E 023°02'219.5
2018-Jun-15 00:29N 36°25' E 023°05'817.8
2018-Jun-15 00:00N 36°28' E 023°15'1020.7
2018-Jun-14 23:30N 36°36' E 023°22'3720.5
2018-Jun-14 21:41N 37°08' E 023°47'2320.2
2018-Jun-14 20:33N 37°28' E 024°01'120.2
2018-Jun-14 20:30N 37°29' E 024°02'1020.2
2018-Jun-14 20:00N 37°37' E 024°09'4419.6
2018-Jun-14 17:44N 38°12' E 024°44'519.8
2018-Jun-14 17:30N 38°16' E 024°47'2819.8
2018-Jun-14 16:06N 38°41' E 025°02'819.8
2018-Jun-14 15:43N 38°47' E 025°07'6520.0
2018-Jun-14 12:29N 39°45' E 025°45'1020.8
2018-Jun-14 12:00N 39°54' E 025°50'1120.6
2018-Jun-14 11:29N 40°00' E 026°01'8616.6
2018-Jun-14 06:17N 40°46' E 027°38'1820.5
2018-Jun-14 05:26N 40°48' E 028°01'1019.9
2018-Jun-14 04:56N 40°48' E 028°14'5518.3
2018-Jun-14 01:57N 40°42' E 029°25'1 1.4
2018-Jun-14 01:19N 40°41' E 029°26'0 0.0
2018-Jun-14 00:13N 40°41' E 029°26'0 0.0
2018-Jun-13 22:43N 40°41' E 029°26'0 0.0
2018-Jun-13 22:28N 40°41' E 029°26'0 0.0
2018-Jun-13 19:43N 40°41' E 029°26'0 0.0
2018-Jun-13 19:22N 40°41' E 029°26'0 0.0
2018-Jun-13 17:22N 40°41' E 029°26'0 0.0
2018-Jun-13 04:43N 40°41' E 029°26'0 0.0
2018-Jun-13 04:28N 40°41' E 029°26'0 0.0
2018-Jun-13 03:58N 40°41' E 029°26'0 0.0
2018-Jun-13 01:49N 40°41' E 029°26'0 0.0
2018-Jun-13 00:58N 40°41' E 029°26'0 0.0
2018-Jun-13 00:19N 40°41' E 029°26'0 0.0
2018-Jun-12 23:58N 40°41' E 029°26'0 0.0
2018-Jun-12 23:25N 40°41' E 029°26'0 0.0
2018-Jun-12 22:55N 40°41' E 029°26'0 0.0
2018-Jun-12 22:16N 40°41' E 029°26'151 9.8
2018-Jun-12 06:54N 40°02' E 026°15'514.1
2018-Jun-12 06:30N 40°00' E 026°08'816.2
2018-Jun-12 06:01N 39°57' E 025°58'916.8
2018-Jun-12 05:29N 39°49' E 025°52'1117.8
2018-Jun-12 04:50N 39°39' E 025°45'6718.2
2018-Jun-12 01:09N 38°39' E 025°06'318.2
2018-Jun-12 00:58N 38°36' E 025°04'59614.8
2018-Jun-10 08:36N 44°06' E 014°03'221.0
2018-Jun-10 08:30N 44°08' E 014°01'1021.0
2018-Jun-10 08:00N 44°17' E 013°53'1020.7
2018-Jun-10 07:30N 44°25' E 013°45'1020.7
2018-Jun-10 07:01N 44°34' E 013°37'1020.7
2018-Jun-10 06:30N 44°42' E 013°29'1020.6
2018-Jun-10 06:00N 44°51' E 013°21'1020.4
2018-Jun-10 05:31N 44°60' E 013°14'1020.5
2018-Jun-10 05:00N 45°08' E 013°06'1020.3
2018-Jun-10 04:30N 45°18' E 013°03'918.4
2018-Jun-10 04:00N 45°27' E 013°08'1019.3
2018-Jun-10 03:30N 45°33' E 013°18'1019.7
2018-Jun-10 03:00N 45°37' E 013°31'918.0
2018-Jun-10 02:30N 45°38' E 013°44'1 2.2
2018-Jun-10 02:00N 45°38' E 013°45'0 0.0
2018-Jun-10 01:18N 45°38' E 013°45'0 0.0
2018-Jun-10 01:00N 45°38' E 013°45'0 0.0
2018-Jun-10 00:30N 45°38' E 013°45'0 0.0
2018-Jun-10 00:00N 45°38' E 013°45'0 0.0
2018-Jun-09 23:30N 45°38' E 013°45'0 0.0
2018-Jun-09 23:00N 45°38' E 013°45'0 0.0
2018-Jun-09 22:21N 45°38' E 013°45'0 0.0
2018-Jun-09 21:57N 45°38' E 013°45'0 0.0
2018-Jun-09 21:30N 45°38' E 013°45'0 0.0
2018-Jun-09 21:00N 45°38' E 013°45'0 0.0
2018-Jun-09 20:30N 45°38' E 013°45'0 0.0
2018-Jun-09 20:00N 45°38' E 013°45'0 0.0
2018-Jun-09 19:30N 45°38' E 013°45'0 0.0
2018-Jun-09 19:00N 45°38' E 013°45'  
Track history (hours):
 
Tides and Currents Weather Stations Pressure Air Temp Water Temp Dewpoint Dewpoint Depression Visibility Wind Speed Wind Dir Waves Ship Positions

Fadiq

Last reported at 2018-Jun-19 18:53 UTC. Time now 2018-Jun-20 09:44 UTC.
Position N 40°46' E 028°54'.

Length 210 m; draft 6.9 m.

Type: Ship (hazmat cat A). MMSI: 271045707.

Date/timePositionNaut miles runAvg speedWind from/ knotsBaromVisibWave heightAir tempDewpointWater temp
2018-Jun-19 18:53N 40°46' E 028°54'1119.4
2018-Jun-19 18:20N 40°44' E 028°40'  
2018-Jun-17 12:58N 44°07' E 014°02'2420.0
2018-Jun-17 11:45N 44°27' E 013°43'519.8
2018-Jun-17 11:30N 44°31' E 013°39'1019.8
2018-Jun-17 11:00N 44°39' E 013°32'1020.0
2018-Jun-17 10:30N 44°48' E 013°24'1019.9
2018-Jun-17 10:00N 44°56' E 013°16'1019.9
2018-Jun-17 09:30N 45°04' E 013°08'1019.6
2018-Jun-17 09:00N 45°13' E 013°03'918.6
2018-Jun-17 08:30N 45°23' E 013°02'1019.6
2018-Jun-17 08:00N 45°30' E 013°12'1019.1
2018-Jun-17 07:30N 45°35' E 013°23'1019.2
2018-Jun-17 07:00N 45°38' E 013°36'612.7
2018-Jun-17 06:30N 45°38' E 013°45'0 0.1
2018-Jun-17 05:49N 45°38' E 013°45'0 0.0
2018-Jun-17 05:25N 45°38' E 013°45'0 0.0
2018-Jun-17 04:55N 45°38' E 013°45'0 0.0
2018-Jun-17 04:25N 45°38' E 013°45'0 0.0
2018-Jun-17 03:55N 45°38' E 013°45'0 0.0
2018-Jun-17 03:13N 45°38' E 013°45'0 0.0
2018-Jun-17 02:55N 45°38' E 013°45'0 0.0
2018-Jun-17 02:19N 45°38' E 013°45'0 0.0
2018-Jun-17 01:55N 45°38' E 013°45'0 0.0
2018-Jun-17 01:25N 45°38' E 013°45'0 0.0
2018-Jun-17 00:55N 45°38' E 013°45'0 0.0
2018-Jun-17 00:25N 45°38' E 013°45'0 0.0
2018-Jun-16 23:55N 45°38' E 013°45'0 0.0
2018-Jun-16 23:25N 45°38' E 013°45'0 0.0
2018-Jun-16 22:55N 45°38' E 013°45'0 0.0
2018-Jun-16 22:25N 45°38' E 013°45'0 0.0
2018-Jun-16 21:55N 45°38' E 013°45'0 0.0
2018-Jun-16 21:25N 45°38' E 013°45'0 0.0
2018-Jun-16 20:55N 45°38' E 013°45'0 0.0
2018-Jun-16 20:25N 45°38' E 013°45'0 0.0
2018-Jun-16 19:55N 45°38' E 013°45'0 0.0
2018-Jun-16 19:19N 45°38' E 013°45'0 0.0
2018-Jun-16 18:49N 45°38' E 013°45'0 0.0
2018-Jun-16 18:25N 45°38' E 013°45'0 0.0
2018-Jun-16 17:49N 45°38' E 013°45'0 0.0
2018-Jun-16 17:25N 45°38' E 013°45'0 0.0
2018-Jun-16 16:55N 45°38' E 013°45'0 0.0
2018-Jun-16 16:25N 45°38' E 013°45'0 0.0
2018-Jun-16 15:49N 45°38' E 013°45'0 0.0
2018-Jun-16 15:25N 45°38' E 013°45'0 0.0
2018-Jun-16 14:55N 45°38' E 013°45'2 3.7
2018-Jun-16 14:30N 45°39' E 013°43'714.8
2018-Jun-16 14:01N 45°36' E 013°34'918.8
2018-Jun-16 13:30N 45°31' E 013°22'1019.3
2018-Jun-16 13:00N 45°24' E 013°13'918.5
2018-Jun-16 12:30N 45°15' E 013°13'1019.7
2018-Jun-16 12:00N 45°06' E 013°17'1020.1
2018-Jun-16 11:30N 44°57' E 013°23'1019.9
2018-Jun-16 11:00N 44°48' E 013°30'1020.0
2018-Jun-16 10:30N 44°40' E 013°38'1419.9
2018-Jun-16 09:49N 44°28' E 013°48'620.0
2018-Jun-16 09:30N 44°23' E 013°53'63519.3
2018-Jun-15 00:36N 36°26' E 023°02'219.5
2018-Jun-15 00:29N 36°25' E 023°05'817.8
2018-Jun-15 00:00N 36°28' E 023°15'1020.7
2018-Jun-14 23:30N 36°36' E 023°22'3720.5
2018-Jun-14 21:41N 37°08' E 023°47'2320.2
2018-Jun-14 20:33N 37°28' E 024°01'120.2
2018-Jun-14 20:30N 37°29' E 024°02'1020.2
2018-Jun-14 20:00N 37°37' E 024°09'4419.6
2018-Jun-14 17:44N 38°12' E 024°44'519.8
2018-Jun-14 17:30N 38°16' E 024°47'2819.8
2018-Jun-14 16:06N 38°41' E 025°02'819.8
2018-Jun-14 15:43N 38°47' E 025°07'6520.0
2018-Jun-14 12:29N 39°45' E 025°45'1020.8
2018-Jun-14 12:00N 39°54' E 025°50'1120.6
2018-Jun-14 11:29N 40°00' E 026°01'8616.6
2018-Jun-14 06:17N 40°46' E 027°38'1820.5
2018-Jun-14 05:26N 40°48' E 028°01'1019.9
2018-Jun-14 04:56N 40°48' E 028°14'5518.3
2018-Jun-14 01:57N 40°42' E 029°25'1 1.4
2018-Jun-14 01:19N 40°41' E 029°26'0 0.0
2018-Jun-14 00:13N 40°41' E 029°26'0 0.0
2018-Jun-13 22:43N 40°41' E 029°26'0 0.0
2018-Jun-13 22:28N 40°41' E 029°26'0 0.0
2018-Jun-13 19:43N 40°41' E 029°26'0 0.0
2018-Jun-13 19:22N 40°41' E 029°26'0 0.0
2018-Jun-13 17:22N 40°41' E 029°26'0 0.0
2018-Jun-13 04:43N 40°41' E 029°26'0 0.0
2018-Jun-13 04:28N 40°41' E 029°26'0 0.0
2018-Jun-13 03:58N 40°41' E 029°26'0 0.0
2018-Jun-13 01:49N 40°41' E 029°26'0 0.0
2018-Jun-13 00:58N 40°41' E 029°26'0 0.0
2018-Jun-13 00:19N 40°41' E 029°26'0 0.0
2018-Jun-12 23:58N 40°41' E 029°26'0 0.0
2018-Jun-12 23:25N 40°41' E 029°26'0 0.0
2018-Jun-12 22:55N 40°41' E 029°26'0 0.0
2018-Jun-12 22:16N 40°41' E 029°26'151 9.8
2018-Jun-12 06:54N 40°02' E 026°15'514.1
2018-Jun-12 06:30N 40°00' E 026°08'816.2
2018-Jun-12 06:01N 39°57' E 025°58'916.8
2018-Jun-12 05:29N 39°49' E 025°52'1117.8
2018-Jun-12 04:50N 39°39' E 025°45'6718.2
2018-Jun-12 01:09N 38°39' E 025°06'318.2
2018-Jun-12 00:58N 38°36' E 025°04'59614.8
2018-Jun-10 08:36N 44°06' E 014°03'221.0
2018-Jun-10 08:30N 44°08' E 014°01'1021.0
2018-Jun-10 08:00N 44°17' E 013°53'1020.7
2018-Jun-10 07:30N 44°25' E 013°45'1020.7
2018-Jun-10 07:01N 44°34' E 013°37'1020.7
2018-Jun-10 06:30N 44°42' E 013°29'1020.6
2018-Jun-10 06:00N 44°51' E 013°21'1020.4
2018-Jun-10 05:31N 44°60' E 013°14'1020.5
2018-Jun-10 05:00N 45°08' E 013°06'1020.3
2018-Jun-10 04:30N 45°18' E 013°03'918.4
2018-Jun-10 04:00N 45°27' E 013°08'1019.3
2018-Jun-10 03:30N 45°33' E 013°18'1019.7
2018-Jun-10 03:00N 45°37' E 013°31'918.0
2018-Jun-10 02:30N 45°38' E 013°44'1 2.2
2018-Jun-10 02:00N 45°38' E 013°45'0 0.0
2018-Jun-10 01:18N 45°38' E 013°45'0 0.0
2018-Jun-10 01:00N 45°38' E 013°45'0 0.0
2018-Jun-10 00:30N 45°38' E 013°45'0 0.0
2018-Jun-10 00:00N 45°38' E 013°45'0 0.0
2018-Jun-09 23:30N 45°38' E 013°45'0 0.0
2018-Jun-09 23:00N 45°38' E 013°45'0 0.0
2018-Jun-09 22:21N 45°38' E 013°45'0 0.0
2018-Jun-09 21:57N 45°38' E 013°45'0 0.0
2018-Jun-09 21:30N 45°38' E 013°45'0 0.0
2018-Jun-09 21:00N 45°38' E 013°45'0 0.0
2018-Jun-09 20:30N 45°38' E 013°45'0 0.0
2018-Jun-09 20:00N 45°38' E 013°45'0 0.0
2018-Jun-09 19:30N 45°38' E 013°45'0 0.0
2018-Jun-09 19:00N 45°38' E 013°45'  

Dump ship's entire track history